Time;durP1;ratioP1;P1;durP2;ratioP2;P2;SDS_P1;SDS_P2;PMS_P1;PMS_P2;Temp;Humidity;BMP_temperature;BMP_pressure;BME280_temperature;BME280_humidity;BME280_pressure;Samples;Min_cycle;Max_cycle;Signal;HPM_P1;HPM_P2
2022/03/02 00:01:29;;;;;;;15.43;10.87;;;;;;;-2.80;100.00;97103.56;5031535;27;101785;-61
2022/03/02 00:03:56;;;;;;;14.10;9.97;;;;;;;-2.90;100.00;97103.63;5013321;28;105860;-61
2022/03/02 00:06:23;;;;;;;14.67;10.80;;;;;;;-2.78;100.00;97102.44;5029579;28;102798;-61
2022/03/02 00:08:50;;;;;;;14.63;11.23;;;;;;;-3.09;100.00;97098.59;5033553;28;101995;-61
2022/03/02 00:11:17;;;;;;;16.67;10.63;;;;;;;-3.28;100.00;97101.34;5029568;28;105358;-61
2022/03/02 00:13:45;;;;;;;18.77;12.30;;;;;;;-3.27;100.00;97097.78;5030000;28;101838;-61
2022/03/02 00:16:12;;;;;;;16.67;11.30;;;;;;;-3.26;100.00;97104.63;5029788;28;106207;-61
2022/03/02 00:18:42;;;;;;;17.70;12.40;;;;;;;-3.14;100.00;97098.25;5030845;28;102606;-61
2022/03/02 00:21:08;;;;;;;22.57;13.67;;;;;;;-3.10;100.00;97099.59;5031303;28;101829;-61
2022/03/02 00:23:35;;;;;;;40.80;18.37;;;;;;;-3.04;100.00;97098.97;5029750;28;105177;-61
2022/03/02 00:26:03;;;;;;;31.67;17.77;;;;;;;-2.99;100.00;97099.34;5029441;28;105820;-61
2022/03/02 00:28:30;;;;;;;27.20;15.83;;;;;;;-2.88;100.00;97099.13;5029908;28;101750;-61
2022/03/02 00:30:57;;;;;;;16.90;12.13;;;;;;;-2.91;100.00;97096.81;5031973;28;105212;-61
2022/03/02 00:33:24;;;;;;;16.17;11.10;;;;;;;-2.96;100.00;97098.25;5029726;28;101849;-61
2022/03/02 00:35:52;;;;;;;15.90;11.40;;;;;;;-3.00;100.00;97095.09;5029801;28;105761;-61
2022/03/02 00:38:19;;;;;;;15.00;11.33;;;;;;;-2.91;100.00;97099.41;5030410;28;102868;-61
2022/03/02 00:40:46;;;;;;;14.27;10.23;;;;;;;-3.07;100.00;97091.47;5029135;28;101742;-61
2022/03/02 00:43:13;;;;;;;15.03;10.43;;;;;;;-3.38;100.00;97097.19;5029402;28;104916;-61
2022/03/02 00:45:41;;;;;;;13.37;10.10;;;;;;;-3.36;100.00;97096.06;5029106;28;104053;-61
2022/03/02 00:48:08;;;;;;;13.53;9.87;;;;;;;-3.34;100.00;97093.34;5029541;28;101929;-61
2022/03/02 00:50:36;;;;;;;16.17;10.90;;;;;;;-3.25;100.00;97095.03;5030521;28;105153;-61
2022/03/02 00:53:07;;;;;;;14.33;9.73;;;;;;;-3.50;100.00;97101.78;5032306;28;104440;-61
2022/03/02 00:55:35;;;;;;;13.23;9.97;;;;;;;-3.73;100.00;97092.75;5030191;28;105000;-61
2022/03/02 00:58:02;;;;;;;13.83;10.03;;;;;;;-3.85;100.00;97088.72;5028925;28;105089;-61
2022/03/02 01:00:29;;;;;;;13.00;9.30;;;;;;;-3.78;100.00;97084.56;5029445;28;101899;-61
2022/03/02 01:02:56;;;;;;;13.77;9.57;;;;;;;-3.74;100.00;97080.72;5030215;28;104935;-61
2022/03/02 01:05:23;;;;;;;12.03;9.97;;;;;;;-3.85;100.00;97077.50;5029423;28;105288;-61
2022/03/02 01:07:50;;;;;;;14.20;9.67;;;;;;;-3.87;100.00;97069.84;5028908;28;101877;-61
2022/03/02 01:10:20;;;;;;;13.03;10.10;;;;;;;-3.91;100.00;97073.72;5030257;28;103747;-61
2022/03/02 01:12:48;;;;;;;12.27;9.07;;;;;;;-4.05;100.00;97076.78;5032180;28;105522;-61
2022/03/02 01:15:16;;;;;;;11.60;9.10;;;;;;;-4.07;100.00;97076.13;5030057;28;105067;-61
2022/03/02 01:17:43;;;;;;;11.53;8.90;;;;;;;-4.09;100.00;97070.22;5029459;28;105093;-61
2022/03/02 01:20:12;;;;;;;12.97;9.33;;;;;;;-4.11;100.00;97071.34;5031307;28;101921;-61
2022/03/02 01:22:40;;;;;;;12.43;9.47;;;;;;;-4.08;100.00;97077.09;5029851;28;105941;-61
2022/03/02 01:25:09;;;;;;;10.93;8.70;;;;;;;-4.16;100.00;97079.56;5029218;28;104193;-61
2022/03/02 01:27:38;;;;;;;16.80;9.80;;;;;;;-3.97;100.00;97081.25;5029886;28;102037;-61
2022/03/02 01:30:07;;;;;;;13.53;9.50;;;;;;;-4.07;100.00;97083.91;5030827;27;102262;-61
2022/03/02 01:32:34;;;;;;;12.13;9.07;;;;;;;-3.96;100.00;97080.28;5029143;28;105682;-61
2022/03/02 01:35:01;;;;;;;12.20;9.40;;;;;;;-3.82;100.00;97072.03;5033002;28;101971;-61
2022/03/02 01:37:28;;;;;;;13.57;9.53;;;;;;;-3.75;100.00;97067.88;5030463;27;102535;-61
2022/03/02 01:39:55;;;;;;;13.43;9.53;;;;;;;-3.73;100.00;97066.75;5031441;28;101786;-61
2022/03/02 01:42:22;;;;;;;13.60;9.43;;;;;;;-3.66;100.00;97065.22;5029525;28;105125;-61
2022/03/02 01:44:50;;;;;;;13.03;9.67;;;;;;;-3.71;100.00;97067.44;5030505;28;102583;-61
2022/03/02 01:47:17;;;;;;;13.40;9.67;;;;;;;-3.94;100.00;97058.41;5030959;27;101791;-61
2022/03/02 01:49:44;;;;;;;12.53;9.83;;;;;;;-3.89;100.00;97065.75;5030763;27;102523;-61
2022/03/02 01:52:11;;;;;;;17.63;10.43;;;;;;;-3.81;100.00;97053.69;5027862;28;105895;-61
2022/03/02 01:54:38;;;;;;;17.10;10.00;;;;;;;-3.69;100.00;97042.13;5028501;28;101874;-61
2022/03/02 01:57:05;;;;;;;14.87;9.60;;;;;;;-3.75;100.00;97041.88;5031442;28;105479;-61
2022/03/02 01:59:32;;;;;;;12.97;9.77;;;;;;;-3.66;100.00;97041.81;5030668;27;101807;-61
2022/03/02 02:02:01;;;;;;;16.20;9.50;;;;;;;-3.68;100.00;97038.56;5030900;28;102859;-61
2022/03/02 02:04:28;;;;;;;14.27;10.13;;;;;;;-3.70;100.00;97030.09;5029816;28;103076;-61
2022/03/02 02:06:55;;;;;;;13.87;10.17;;;;;;;-3.76;100.00;97035.06;5028168;28;101889;-61
2022/03/02 02:09:22;;;;;;;13.53;10.10;;;;;;;-3.97;100.00;97037.94;5029707;28;102431;-61
2022/03/02 02:11:49;;;;;;;12.87;9.53;;;;;;;-4.27;100.00;97030.41;5029314;28;102920;-61
2022/03/02 02:14:16;;;;;;;13.10;9.70;;;;;;;-4.15;100.00;97029.25;5029100;28;101854;-61
2022/03/02 02:16:44;;;;;;;14.20;8.17;;;;;;;-4.29;100.00;97027.16;5030575;28;102448;-61
2022/03/02 02:19:12;;;;;;;14.07;9.00;;;;;;;-4.36;100.00;97033.06;5031705;28;105317;-61
2022/03/02 02:21:41;;;;;;;11.53;8.73;;;;;;;-4.64;100.00;97034.78;5030174;28;102604;-61
2022/03/02 02:24:08;;;;;;;9.63;8.10;;;;;;;-4.49;100.00;97029.97;5029701;27;102548;-61
2022/03/02 02:26:35;;;;;;;13.60;9.40;;;;;;;-4.31;100.00;97023.06;5030582;27;101920;-61
2022/03/02 02:29:01;;;;;;;14.23;10.20;;;;;;;-4.25;100.00;97015.50;5030394;28;102473;-61
2022/03/02 02:31:29;;;;;;;13.47;9.70;;;;;;;-4.15;100.00;97013.69;5028366;28;104894;-61
2022/03/02 02:33:56;;;;;;;12.60;9.30;;;;;;;-4.03;100.00;97014.31;5028757;28;101893;-61
2022/03/02 02:36:23;;;;;;;14.53;10.47;;;;;;;-3.97;100.00;97013.72;5028590;28;105204;-61
2022/03/02 02:38:54;;;;;;;13.27;9.73;;;;;;;-3.92;100.00;97012.34;5027452;28;105396;-61
2022/03/02 02:41:21;;;;;;;14.87;9.57;;;;;;;-4.09;100.00;97002.72;5033791;28;101695;-61
2022/03/02 02:43:48;;;;;;;12.43;9.40;;;;;;;-4.08;100.00;97003.53;5029620;27;103181;-61
2022/03/02 02:46:15;;;;;;;16.93;9.90;;;;;;;-4.22;100.00;97006.59;5028435;28;102188;-61
2022/03/02 02:48:42;;;;;;;12.03;9.37;;;;;;;-4.09;100.00;97002.72;5028537;28;106159;-61
2022/03/02 02:51:09;;;;;;;11.90;9.53;;;;;;;-4.27;100.00;97001.88;5029258;28;104824;-61
2022/03/02 02:53:36;;;;;;;14.53;10.57;;;;;;;-4.23;100.00;97002.38;5030133;28;101816;-61
2022/03/02 02:56:06;;;;;;;14.47;10.10;;;;;;;-4.16;100.00;97009.47;5029159;28;102925;-61
2022/03/02 02:58:33;;;;;;;16.77;10.53;;;;;;;-4.22;100.00;97004.84;5026864;28;105783;-61
2022/03/02 03:01:00;;;;;;;15.73;10.50;;;;;;;-4.25;100.00;97007.72;5029131;27;101668;-61
2022/03/02 03:03:27;;;;;;;12.83;9.77;;;;;;;-4.10;100.00;97003.69;5034067;27;102853;-61
2022/03/02 03:05:54;;;;;;;12.43;9.80;;;;;;;-4.16;100.00;96999.06;5033396;27;101841;-61
2022/03/02 03:08:21;;;;;;;14.63;10.17;;;;;;;-4.14;100.00;97002.31;5031927;28;105052;-61
2022/03/02 03:10:48;;;;;;;14.23;9.30;;;;;;;-4.00;100.00;96990.63;5032132;28;102487;-61
2022/03/02 03:13:17;;;;;;;14.60;9.97;;;;;;;-3.95;100.00;96996.22;5031978;28;101834;-61
2022/03/02 03:15:45;;;;;;;12.70;9.57;;;;;;;-4.04;100.00;97000.50;5031038;28;105219;-61
2022/03/02 03:18:13;;;;;;;19.50;10.00;;;;;;;-4.23;100.00;96994.59;5032670;28;102702;-61
2022/03/02 03:20:40;;;;;;;12.77;9.57;;;;;;;-4.25;100.00;97005.13;5032360;28;101756;-61
2022/03/02 03:23:09;;;;;;;13.90;10.30;;;;;;;-4.15;100.00;97011.09;5036085;28;102498;-61
2022/03/02 03:25:36;;;;;;;13.20;9.73;;;;;;;-4.10;100.00;97006.28;5032155;28;102000;-61
2022/03/02 03:28:04;;;;;;;17.33;10.37;;;;;;;-4.09;100.00;97007.91;5033162;28;102402;-61
2022/03/02 03:30:33;;;;;;;15.43;10.83;;;;;;;-4.07;100.00;97008.59;5029866;28;106577;-61
2022/03/02 03:33:02;;;;;;;14.60;10.77;;;;;;;-4.09;100.00;97002.72;5031775;28;101829;-61
2022/03/02 03:35:29;;;;;;;12.67;9.83;;;;;;;-4.08;100.00;96990.56;5030716;28;105668;-61
2022/03/02 03:37:57;;;;;;;14.40;10.27;;;;;;;-4.06;100.00;96991.22;5032420;28;103172;-61
2022/03/02 03:40:24;;;;;;;12.17;9.60;;;;;;;-4.19;100.00;96981.19;5031983;28;101856;-61
2022/03/02 03:42:53;;;;;;;16.33;9.77;;;;;;;-4.30;100.00;96993.56;5031375;28;105185;-61
2022/03/02 03:45:20;;;;;;;11.93;9.40;;;;;;;-4.33;100.00;96978.25;5034183;28;105750;-61
2022/03/02 03:47:49;;;;;;;12.20;9.37;;;;;;;-4.40;100.00;96982.41;5032905;28;102527;-61
2022/03/02 03:50:17;;;;;;;11.90;9.30;;;;;;;-4.59;100.00;96977.31;5030793;28;105386;-61
2022/03/02 03:52:45;;;;;;;15.23;9.43;;;;;;;-4.49;100.00;96981.47;5032547;28;101940;-61
2022/03/02 03:55:13;;;;;;;14.87;10.00;;;;;;;-4.40;100.00;96982.41;5031481;28;103910;-61
2022/03/02 03:57:40;;;;;;;15.53;9.40;;;;;;;-4.39;100.00;96979.66;5031205;28;102634;-61
2022/03/02 04:00:10;;;;;;;13.57;9.33;;;;;;;-4.53;100.00;96979.31;5031334;28;101843;-61
2022/03/02 04:02:38;;;;;;;15.50;9.97;;;;;;;-4.64;100.00;96980.31;5032288;28;102391;-61
2022/03/02 04:05:07;;;;;;;14.93;9.57;;;;;;;-4.65;100.00;96988.25;5029310;28;105687;-61
2022/03/02 04:07:34;;;;;;;14.27;10.30;;;;;;;-4.79;100.00;96981.75;5034686;28;101859;-61
2022/03/02 04:10:01;;;;;;;13.63;9.27;;;;;;;-4.74;100.00;96979.53;5031159;27;102596;-61
2022/03/02 04:12:29;;;;;;;16.43;9.90;;;;;;;-4.77;100.00;96982.41;5031127;28;102349;-61
2022/03/02 04:14:56;;;;;;;16.13;9.67;;;;;;;-4.68;100.00;96989.34;5031713;27;102556;-61
2022/03/02 04:17:23;;;;;;;17.80;10.03;;;;;;;-4.71;100.00;96984.44;5030163;28;104422;-61
2022/03/02 04:19:50;;;;;;;13.33;9.30;;;;;;;-4.89;100.00;96988.75;5031288;27;101883;-61
2022/03/02 04:22:19;;;;;;;15.30;9.73;;;;;;;-4.87;100.00;96991.19;5032418;28;102482;-60
2022/03/02 04:24:47;;;;;;;13.10;9.70;;;;;;;-4.89;100.00;96995.69;5031572;28;102519;-60
2022/03/02 04:27:14;;;;;;;13.10;9.67;;;;;;;-4.97;100.00;96991.22;5030885;28;101924;-60
2022/03/02 04:29:42;;;;;;;12.17;9.97;;;;;;;-4.93;100.00;96984.78;5032881;28;105352;-61
2022/03/02 04:32:09;;;;;;;13.67;10.37;;;;;;;-4.99;100.00;96984.53;5029853;28;102075;-60
2022/03/02 04:34:36;;;;;;;12.47;9.30;;;;;;;-5.07;100.00;96977.44;5031238;28;102907;-60
2022/03/02 04:37:04;;;;;;;12.27;9.40;;;;;;;-4.85;100.00;96977.09;5030105;28;105533;-60
2022/03/02 04:39:33;;;;;;;14.37;10.47;;;;;;;-4.72;100.00;96967.25;5030618;28;101714;-60
2022/03/02 04:42:00;;;;;;;13.07;10.10;;;;;;;-4.64;100.00;96969.94;5031149;28;102454;-60
2022/03/02 04:44:27;;;;;;;15.63;10.23;;;;;;;-4.64;100.00;96967.34;5030488;28;102839;-60
2022/03/02 04:46:54;;;;;;;13.90;10.20;;;;;;;-4.53;100.00;96967.16;5030925;28;101799;-60
2022/03/02 04:49:21;;;;;;;14.70;10.20;;;;;;;-4.49;100.00;96971.09;5029492;28;105792;-60
2022/03/02 04:51:49;;;;;;;12.60;9.47;;;;;;;-4.60;100.00;96965.28;5034069;28;103156;-60
2022/03/02 04:56:59;;;;;;;13.70;9.83;;;;;;;-4.60;100.00;96965.28;5027688;28;105488;-60
2022/03/02 04:59:26;;;;;;;12.80;8.47;;;;;;;-4.75;100.00;96959.75;5031583;27;101852;-60
2022/03/02 05:01:53;;;;;;;14.10;10.07;;;;;;;-4.57;100.00;96958.03;5031322;28;102451;-60
2022/03/02 05:04:20;;;;;;;14.27;10.10;;;;;;;-4.86;100.00;96970.28;5030289;28;102677;-60
2022/03/02 05:06:48;;;;;;;15.27;10.17;;;;;;;-4.77;100.00;96958.25;5030831;27;101872;-60
2022/03/02 05:09:15;;;;;;;13.97;9.97;;;;;;;-4.86;100.00;96961.72;5029247;28;105187;-60
2022/03/02 05:11:41;;;;;;;13.20;10.20;;;;;;;-4.62;100.00;96947.28;5028438;28;106256;-60
2022/03/02 05:14:10;;;;;;;14.13;10.23;;;;;;;-4.66;100.00;96939.91;5032512;28;101943;-60
2022/03/02 05:16:37;;;;;;;16.80;10.33;;;;;;;-4.55;100.00;96945.72;5029821;28;102529;-60
2022/03/02 05:19:04;;;;;;;14.57;10.20;;;;;;;-4.73;100.00;96939.69;5030272;27;101811;-60
2022/03/02 05:21:31;;;;;;;13.07;9.33;;;;;;;-4.96;100.00;96943.56;5028791;28;105485;-60
2022/03/02 05:23:58;;;;;;;11.90;9.07;;;;;;;-4.87;100.00;96936.72;5029254;28;105725;-60
2022/03/02 05:26:25;;;;;;;14.80;10.07;;;;;;;-4.98;100.00;96939.47;5031226;27;101827;-60
2022/03/02 05:28:52;;;;;;;16.60;11.83;;;;;;;-4.76;100.00;96928.78;5028848;28;105111;-60
2022/03/02 05:31:23;;;;;;;14.97;11.57;;;;;;;-4.68;100.00;96929.69;5013422;28;104399;-60
2022/03/02 05:33:51;;;;;;;15.23;10.80;;;;;;;-4.98;100.00;96935.13;5013477;28;101731;-60
2022/03/02 05:36:18;;;;;;;14.90;10.67;;;;;;;-4.92;100.00;96924.19;5009588;28;102504;-60
2022/03/02 05:38:45;;;;;;;16.70;11.10;;;;;;;-5.09;100.00;96918.91;5010211;28;102128;-60
2022/03/02 05:41:12;;;;;;;14.83;10.80;;;;;;;-5.06;100.00;96921.25;5010278;28;102622;-60
2022/03/02 05:43:39;;;;;;;12.73;10.90;;;;;;;-4.91;100.00;96914.63;5009558;28;103026;-60
2022/03/02 05:46:06;;;;;;;11.67;9.20;;;;;;;-4.93;100.00;96917.38;5009372;28;102136;-60
2022/03/02 05:48:35;;;;;;;13.43;9.40;;;;;;;-4.90;100.00;96919.69;5009439;28;105539;-60
2022/03/02 05:51:02;;;;;;;12.93;9.47;;;;;;;-4.93;100.00;96912.19;5008808;28;105581;-60
2022/03/02 05:53:29;;;;;;;13.43;9.47;;;;;;;-4.92;100.00;96906.03;5010783;28;101922;-60
2022/03/02 05:55:56;;;;;;;12.57;9.27;;;;;;;-4.77;100.00;96909.78;5011959;28;105137;-60
2022/03/02 05:58:23;;;;;;;14.20;9.73;;;;;;;-4.96;100.00;96912.44;5009269;28;101992;-61
2022/03/02 06:00:50;;;;;;;12.17;8.80;;;;;;;-5.00;100.00;96916.31;5009324;28;103891;-61
2022/03/02 06:03:17;;;;;;;14.33;10.10;;;;;;;-4.83;100.00;96923.34;4988986;28;102568;-61
2022/03/02 06:05:45;;;;;;;17.00;10.07;;;;;;;-4.81;100.00;96928.38;4989376;28;101938;-61
2022/03/02 06:08:12;;;;;;;16.13;10.53;;;;;;;-4.75;100.00;96920.03;4987548;28;105447;-61
2022/03/02 06:10:40;;;;;;;15.80;10.90;;;;;;;-4.66;100.00;96921.75;4988851;28;102594;-61
2022/03/02 06:13:08;;;;;;;15.90;10.07;;;;;;;-4.51;100.00;96923.72;4989179;28;101837;-61
2022/03/02 06:15:36;;;;;;;18.23;12.77;;;;;;;-4.55;100.00;96921.53;4989287;28;102470;-61
2022/03/02 06:18:04;;;;;;;17.23;11.93;;;;;;;-4.41;100.00;96921.06;4991940;28;102638;-61
2022/03/02 06:20:31;;;;;;;21.50;12.23;;;;;;;-4.36;100.00;96911.88;4988971;28;102429;-61
2022/03/02 06:23:02;;;;;;;22.47;13.00;;;;;;;-4.08;100.00;96907.47;4988427;28;102563;-61
2022/03/02 06:25:29;;;;;;;20.13;12.63;;;;;;;-3.81;100.00;96910.81;4989092;28;101924;-61
2022/03/02 06:27:57;;;;;;;22.57;12.87;;;;;;;-3.69;100.00;96899.22;5004231;28;104820;-61
2022/03/02 06:30:24;;;;;;;18.37;12.13;;;;;;;-3.55;100.00;96903.06;4996185;28;102853;-61
2022/03/02 06:32:52;;;;;;;14.73;11.27;;;;;;;-3.58;100.00;96901.56;5008973;28;101689;-61
2022/03/02 06:35:19;;;;;;;15.73;11.40;;;;;;;-3.31;100.00;96898.00;5008756;28;102460;-61
2022/03/02 06:37:47;;;;;;;14.80;11.17;;;;;;;-3.19;100.00;96899.38;5007670;28;101954;-61
2022/03/02 06:40:16;;;;;;;15.90;10.80;;;;;;;-3.07;100.00;96904.19;5027498;28;101961;-61
2022/03/02 06:42:59;;;;;;;15.63;10.93;;;;;;;-3.05;100.00;96911.84;5008211;28;102766;-61
2022/03/02 06:45:35;;;;;;;14.40;10.93;;;;;;;-3.06;100.00;96916.22;5008843;28;101704;-61
2022/03/02 06:48:09;;;;;;;17.57;11.53;;;;;;;-3.17;100.00;96919.06;5008815;28;102827;-61
2022/03/02 06:50:39;;;;;;;17.80;11.80;;;;;;;-3.42;100.00;96903.47;5006683;28;105366;-61
2022/03/02 06:53:12;;;;;;;19.90;12.17;;;;;;;-3.34;100.00;96912.13;5008771;28;101693;-61
2022/03/02 06:55:43;;;;;;;18.40;12.30;;;;;;;-3.07;100.00;96911.19;5007057;28;105648;-61
2022/03/02 06:58:12;;;;;;;18.47;12.53;;;;;;;-3.03;100.00;96910.72;5020144;28;102554;-61
2022/03/02 07:00:40;;;;;;;20.43;13.00;;;;;;;-2.78;100.00;96920.25;5028229;28;102058;-60
2022/03/02 07:03:10;;;;;;;18.73;11.57;;;;;;;-2.53;100.00;96916.81;5026930;28;105313;-60
2022/03/02 07:05:39;;;;;;;16.10;11.83;;;;;;;-2.51;100.00;96917.44;5027826;28;102018;-60
2022/03/02 07:08:08;;;;;;;16.40;11.47;;;;;;;-2.46;100.00;96917.78;5027864;28;105283;-61
2022/03/02 07:10:37;;;;;;;14.50;10.47;;;;;;;-2.37;100.00;96927.28;5026041;28;105399;-61
2022/03/02 07:13:09;;;;;;;15.03;10.40;;;;;;;-2.04;100.00;96915.97;5027877;28;101924;-61
2022/03/02 07:15:36;;;;;;;12.97;10.17;;;;;;;-1.90;100.00;96920.56;5027052;28;105473;-61
2022/03/02 07:18:04;;;;;;;15.57;10.93;;;;;;;-1.86;100.00;96921.06;5027746;27;103263;-60
2022/03/02 07:20:31;;;;;;;14.50;10.80;;;;;;;-1.64;100.00;96923.03;5027956;28;102215;-61
2022/03/02 07:23:01;;;;;;;14.20;10.07;;;;;;;-1.54;100.00;96924.50;5028083;28;102386;-60
2022/03/02 07:25:29;;;;;;;14.83;10.40;;;;;;;-1.46;100.00;96921.06;5028185;28;101995;-60
2022/03/02 07:27:58;;;;;;;19.87;10.87;;;;;;;-1.35;100.00;96928.56;5026205;28;104007;-60
2022/03/02 07:30:27;;;;;;;14.23;10.73;;;;;;;-1.37;100.00;96928.72;5024510;28;102499;-60
2022/03/02 07:32:57;;;;;;;13.17;10.57;;;;;;;-1.33;100.00;96919.59;5026117;28;103400;-60
2022/03/02 07:35:24;;;;;;;14.70;10.30;;;;;;;-1.16;100.00;96929.03;5026823;28;105073;-60
2022/03/02 07:37:55;;;;;;;14.40;11.20;;;;;;;-1.16;100.00;96929.03;5027663;27;102827;-61
2022/03/02 07:40:22;;;;;;;15.10;11.30;;;;;;;-1.03;100.00;96916.31;5028055;27;101788;-61
2022/03/02 07:42:50;;;;;;;15.30;11.17;;;;;;;-0.71;100.00;96913.59;5026773;28;105867;-60
2022/03/02 07:45:18;;;;;;;15.47;12.27;;;;;;;-0.48;100.00;96927.59;5029257;28;105762;-60
2022/03/02 07:47:48;;;;;;;16.57;12.20;;;;;;;-0.24;100.00;96927.47;5026499;28;106550;-60
2022/03/02 07:50:16;;;;;;;17.43;10.77;;;;;;;0.01;100.00;96915.91;5028444;27;102969;-60
2022/03/02 07:52:48;;;;;;;17.73;11.03;;;;;;;0.16;100.00;96915.00;5031220;28;102094;-61
2022/03/02 07:55:17;;;;;;;13.70;10.50;;;;;;;0.13;100.00;96912.72;5029615;28;103961;-61
2022/03/02 07:57:45;;;;;;;16.00;10.80;;;;;;;0.26;100.00;96928.66;5030727;28;102665;-60
2022/03/02 08:00:13;;;;;;;12.27;10.10;;;;;;;0.57;100.00;96923.38;5029692;28;102053;-60
2022/03/02 08:02:42;;;;;;;14.77;10.30;;;;;;;0.85;100.00;96919.19;5029975;28;105346;-60
2022/03/02 08:05:12;;;;;;;11.70;9.27;;;;;;;0.83;100.00;96919.38;5030077;28;102614;-60
2022/03/02 08:07:40;;;;;;;11.07;8.77;;;;;;;0.97;100.00;96920.38;5035940;27;101781;-60
2022/03/02 08:10:09;;;;;;;11.10;9.50;;;;;;;0.82;100.00;96912.50;5028123;28;105333;-60
2022/03/02 08:12:36;;;;;;;12.57;8.53;;;;;;;1.05;100.00;96912.47;5032637;28;101843;-61
2022/03/02 08:15:05;;;;;;;11.23;8.83;;;;;;;1.03;100.00;96915.25;5032571;28;102520;-61
2022/03/02 08:17:38;;;;;;;10.90;8.43;;;;;;;1.49;100.00;96915.94;5030020;28;105584;-60
2022/03/02 08:20:06;;;;;;;9.53;7.77;;;;;;;1.87;100.00;96914.81;5032469;28;101668;-61
2022/03/02 08:22:38;;;;;;;9.53;7.83;;;;;;;1.95;100.00;96910.28;5032218;28;102436;-61
2022/03/02 08:25:10;;;;;;;9.67;7.50;;;;;;;1.90;100.00;96910.00;5031737;27;103071;-60
2022/03/02 08:27:39;;;;;;;11.70;8.37;;;;;;;2.44;100.00;96910.38;5030446;28;103468;-61
2022/03/02 08:30:08;;;;;;;11.70;9.50;;;;;;;2.40;100.00;96901.28;5032445;28;105304;-63
2022/03/02 08:32:37;;;;;;;11.97;9.00;;;;;;;2.45;100.00;96898.88;5031653;28;102118;-63
2022/03/02 08:35:05;;;;;;;11.60;8.97;;;;;;;2.52;100.00;96895.31;5031616;27;102297;-61
2022/03/02 08:37:33;;;;;;;19.23;9.10;;;;;;;2.63;100.00;96894.81;5031290;28;102656;-62
2022/03/02 08:40:04;;;;;;;12.00;8.90;;;;;;;2.65;100.00;96897.25;5025468;28;102220;-63
2022/03/02 08:42:34;;;;;;;11.80;9.20;;;;;;;2.82;100.00;96885.47;5030683;28;105682;-63
2022/03/02 08:45:01;;;;;;;13.97;8.77;;;;;;;2.82;100.00;96893.34;5029351;28;105327;-63
2022/03/02 08:47:38;;;;;;;11.50;8.90;;;;;;;2.74;100.00;96883.78;5031954;28;101804;-63
2022/03/02 08:50:06;;;;;;;15.37;8.53;;;;;;;2.75;100.00;96889.88;5031715;28;102416;-63
2022/03/02 08:52:35;;;;;;;10.73;8.73;;;;;;;2.88;100.00;96884.72;5034013;28;101956;-62
2022/03/02 08:55:08;;;;;;;12.37;8.77;;;;;;;2.93;100.00;96882.31;5031820;28;102477;-63
2022/03/02 08:57:42;;;;;;;10.70;8.57;;;;;;;3.22;100.00;96877.69;5031192;28;103125;-62
2022/03/02 09:00:11;;;;;;;9.20;8.23;;;;;;;3.24;100.00;96877.50;5031623;27;102095;-62
2022/03/02 09:02:39;;;;;;;12.07;8.77;;;;;;;3.37;100.00;96872.31;5010334;28;105223;-62
2022/03/02 09:05:08;;;;;;;10.27;8.77;;;;;;;3.37;100.00;96880.19;5027306;28;105530;-63
2022/03/02 09:07:37;;;;;;;10.50;7.90;;;;;;;3.35;100.00;96872.53;5029634;28;102088;-63
2022/03/02 09:10:07;;;;;;;12.87;8.87;;;;;;;3.59;100.00;96869.41;5030273;28;105257;-62
2022/03/02 09:12:44;;;;;;;10.03;9.00;;;;;;;3.70;100.00;96862.75;5030638;28;102675;-62
2022/03/02 09:15:11;;;;;;;9.20;8.00;;;;;;;3.83;100.00;96865.47;5034863;27;101735;-68
2022/03/02 09:17:52;;;;;;;13.20;8.23;;;;;;;4.03;100.00;96859.25;5029215;28;103822;-63
2022/03/02 09:20:19;;;;;;;11.70;8.67;;;;;;;4.05;100.00;96854.59;5029589;28;103200;-63
2022/03/02 09:22:46;;;;;;;11.67;8.17;;;;;;;4.05;100.00;96843.28;5029598;28;105010;-63
2022/03/02 09:25:15;;;;;;;8.97;7.93;;;;;;;4.22;100.00;96847.16;5029356;28;105841;-63
2022/03/02 09:28:07;;;;;;;9.87;8.27;;;;;;;4.11;100.00;96848.56;5029534;28;101948;-63
2022/03/02 09:30:34;;;;;;;10.60;9.07;;;;;;;4.51;100.00;96839.69;5028993;28;105616;-62
2022/03/02 09:33:03;;;;;;;10.27;8.37;;;;;;;4.53;96.96;96842.16;5028711;28;104462;-63
2022/03/02 09:35:31;;;;;;;10.30;7.83;;;;;;;4.37;95.34;96839.91;5033064;28;102081;-63
2022/03/02 09:37:58;;;;;;;11.37;8.63;;;;;;;4.47;96.00;96837.69;5028290;28;105448;-63
2022/03/02 09:40:29;;;;;;;13.57;8.30;;;;;;;4.51;98.30;96837.06;5030640;27;101697;-63
2022/03/02 09:42:59;;;;;;;10.93;8.20;;;;;;;4.59;93.37;96836.06;5029541;28;105085;-63
2022/03/02 09:45:28;;;;;;;12.03;8.60;;;;;;;4.85;99.51;96831.59;5029556;28;103846;-63
2022/03/02 09:47:57;;;;;;;10.20;7.50;;;;;;;4.77;90.96;96825.72;5028102;28;101894;-63
2022/03/02 09:50:27;;;;;;;8.80;7.40;;;;;;;4.95;85.03;96828.53;5029360;28;102933;-63
2022/03/02 09:52:55;;;;;;;9.17;7.70;;;;;;;4.57;84.34;96827.53;5029480;28;102842;-62
2022/03/02 09:55:24;;;;;;;9.50;7.67;;;;;;;5.00;85.89;96820.81;5030464;28;101990;-62
2022/03/02 09:57:54;;;;;;;9.20;6.80;;;;;;;5.02;84.77;96822.25;5031752;28;105176;-62
2022/03/02 10:00:23;;;;;;;9.30;6.77;;;;;;;5.19;82.69;96817.38;5030642;28;101675;-62
2022/03/02 10:02:53;;;;;;;8.37;7.57;;;;;;;5.37;77.38;96815.69;5030274;27;102607;-62
2022/03/02 10:05:22;;;;;;;9.17;7.17;;;;;;;5.33;77.52;96809.22;5029634;27;102525;-62
2022/03/02 10:07:57;;;;;;;14.10;7.90;;;;;;;5.06;72.79;96796.28;5030475;28;101828;-62
2022/03/02 10:10:26;;;;;;;7.80;6.33;;;;;;;5.16;73.98;96805.41;5030412;27;102580;-62
2022/03/02 10:12:57;;;;;;;10.50;6.53;;;;;;;5.21;68.18;96795.06;5025646;27;106028;-62
2022/03/02 10:15:25;;;;;;;8.20;6.63;;;;;;;5.13;64.18;96797.91;5028853;28;101966;-62
2022/03/02 10:17:54;;;;;;;7.90;6.97;;;;;;;4.92;64.07;96799.97;5030192;28;101946;-62
2022/03/02 10:20:23;;;;;;;10.30;6.97;;;;;;;5.40;61.97;96801.28;5031818;28;105333;-62
2022/03/02 10:23:25;;;;;;;6.60;5.83;;;;;;;5.19;57.92;96798.91;5029499;28;102428;-63
2022/03/02 10:26:07;;;;;;;7.90;6.47;;;;;;;5.94;61.33;96797.22;5025850;28;105383;-62
2022/03/02 10:28:53;;;;;;;9.67;6.60;;;;;;;6.32;55.58;96792.72;5030069;28;102108;-62
2022/03/02 10:31:41;;;;;;;6.90;6.20;;;;;;;6.22;56.04;96792.38;5028023;28;105802;-62
2022/03/02 10:34:30;;;;;;;9.97;6.77;;;;;;;6.08;58.08;96790.84;5029144;27;103941;-62
2022/03/02 10:37:07;;;;;;;7.87;6.63;;;;;;;6.57;60.60;96782.16;5030624;28;102332;-62
2022/03/02 10:39:57;;;;;;;8.87;6.40;;;;;;;6.73;59.10;96786.91;5028364;28;105281;-62
2022/03/02 10:42:31;;;;;;;9.63;6.83;;;;;;;6.85;59.65;96787.81;5022870;28;102805;-62
2022/03/02 10:45:19;;;;;;;11.50;7.03;;;;;;;6.41;58.88;96790.63;5032309;28;101989;-62
2022/03/02 10:47:54;;;;;;;9.60;6.87;;;;;;;6.47;59.95;96781.81;5028611;27;101700;-62
2022/03/02 10:50:22;;;;;;;8.17;6.17;;;;;;;6.83;56.97;96787.22;5028512;28;101887;-62
2022/03/02 10:52:50;;;;;;;15.47;7.73;;;;;;;6.89;57.46;96781.06;5029753;27;102273;-62
2022/03/02 10:55:17;;;;;;;7.40;6.57;;;;;;;6.84;55.05;96779.09;5027514;28;105341;-62
2022/03/02 10:57:56;;;;;;;8.47;6.83;;;;;;;6.52;54.18;96779.34;5029750;28;101808;-62
2022/03/02 11:00:26;;;;;;;7.47;6.57;;;;;;;6.74;55.02;96778.75;5028635;28;106572;-62
2022/03/02 11:02:57;;;;;;;13.47;8.83;;;;;;;6.81;54.96;96773.44;5028967;27;102629;-62
2022/03/02 11:05:26;;;;;;;7.23;6.43;;;;;;;6.61;54.45;96775.44;5028364;28;102124;-62
2022/03/02 11:08:39;;;;;;;10.27;6.27;;;;;;;6.52;56.23;96774.06;5030862;28;105442;-62
2022/03/02 11:11:26;;;;;;;14.07;6.97;;;;;;;6.39;54.49;96760.97;5029535;28;101833;-62
2022/03/02 11:13:53;;;;;;;7.87;6.60;;;;;;;6.74;55.14;96760.25;5029873;28;102321;-62
2022/03/02 11:16:24;;;;;;;7.20;6.47;;;;;;;7.01;55.46;96758.16;5019398;28;102453;-62
2022/03/02 11:19:11;;;;;;;6.93;6.23;;;;;;;6.63;52.20;96758.34;5029520;27;101830;-62
2022/03/02 11:21:40;;;;;;;7.43;6.10;;;;;;;7.11;52.42;96745.25;5028504;28;105155;-62
2022/03/02 11:24:09;;;;;;;8.67;6.47;;;;;;;7.23;52.76;96746.13;5030728;27;102625;-62